Time;durP1;ratioP1;P1;durP2;ratioP2;P2;SDS_P1;SDS_P2;PMS_P1;PMS_P2;Temp;Humidity;BMP_temperature;BMP_pressure;BME280_temperature;BME280_humidity;BME280_pressure;Samples;Min_cycle;Max_cycle;Signal;HPM_P1;HPM_P2
2023/02/18 00:00:58;;;;;;;;;;;;;;;-144.99;89.15;52564.28;5072304;28;20014;-69
2023/02/18 00:03:24;;;;;;;;;;;;;;;-144.99;89.51;52554.09;5065927;28;19986;-69
2023/02/18 00:05:51;;;;;;;;;;;;;;;-144.99;88.77;52562.25;5067229;28;19962;-67
2023/02/18 00:08:18;;;;;;;;;;;;;;;-144.99;89.41;52562.25;5065259;28;19938;-69
2023/02/18 00:10:44;;;;;;;;;;;;;;;-144.99;88.99;52570.38;5067821;28;19993;-69
2023/02/18 00:13:11;;;;;;;;;;;;;;;-144.99;89.07;52574.47;5068036;28;20359;-68
2023/02/18 00:15:39;;;;;;;;;;;;;;;-144.99;88.74;52572.44;5068654;28;19965;-67
2023/02/18 00:18:06;;;;;;;;;;;;;;;-144.99;88.90;52523.50;5067919;28;20472;-65
2023/02/18 00:20:35;;;;;;;;;;;;;;;-144.99;88.72;52570.38;5067217;28;19953;-69
2023/02/18 00:23:01;;;;;;;;;;;;;;;-144.99;88.19;52578.53;5067958;28;20165;-68
2023/02/18 00:25:28;;;;;;;;;;;;;;;-144.99;88.63;52568.34;5067136;28;20068;-67
2023/02/18 00:27:54;;;;;;;;;;;;;;;-144.99;88.71;52568.34;5068201;28;19997;-67
2023/02/18 00:30:21;;;;;;;;;;;;;;;-144.99;88.99;52570.38;5067145;28;20074;-68
2023/02/18 00:32:49;;;;;;;;;;;;;;;-144.99;88.92;52586.69;5071066;28;19940;-67
2023/02/18 00:35:15;;;;;;;;;;;;;;;-144.99;89.22;52558.16;5073172;28;20028;-67
2023/02/18 00:37:42;;;;;;;;;;;;;;;-144.99;88.93;52600.97;5075792;28;19994;-67
2023/02/18 00:40:09;;;;;;;;;;;;;;;-144.99;89.18;52545.94;5088375;28;19965;-68
2023/02/18 00:42:35;;;;;;;;;;;;;;;-144.99;88.53;52537.78;5076554;28;20391;-69
2023/02/18 00:45:02;;;;;;;;;;;;;;;-144.99;88.16;52537.78;5071543;28;19961;-68
2023/02/18 00:47:28;;;;;;;;;;;;;;;-144.99;88.27;52574.47;5071566;28;19951;-70
2023/02/18 00:49:56;;;;;;;;;;;;;;;-144.99;88.51;52611.16;5068946;28;20015;-67
2023/02/18 00:52:23;;;;;;;;;;;;;;;-144.99;89.32;52566.31;5069164;28;19944;-67
2023/02/18 00:54:50;;;;;;;;;;;;;;;-144.99;89.65;52590.78;5070958;28;19938;-69
2023/02/18 00:57:17;;;;;;;;;;;;;;;-144.99;90.09;52582.63;5070017;28;19978;-68
2023/02/18 00:59:43;;;;;;;;;;;;;;;-144.99;88.81;52578.53;5070921;28;20542;-67
2023/02/18 01:02:10;;;;;;;;;;;;;;;-144.99;89.91;52554.09;5066502;28;20043;-68
2023/02/18 01:04:36;;;;;;;;;;;;;;;-144.99;89.97;52558.16;5069942;28;19947;-65
2023/02/18 01:07:04;;;;;;;;;;;;;;;-144.99;89.11;52592.81;5071151;28;19963;-64
2023/02/18 01:09:31;;;;;;;;;;;;;;;-144.99;88.88;52541.84;5070782;28;19939;-65
2023/02/18 01:11:57;;;;;;;;;;;;;;;-144.99;88.07;52533.69;5069432;28;20177;-66
2023/02/18 01:14:23;;;;;;;;;;;;;;;-144.99;87.98;52590.78;5071226;28;20070;-66
2023/02/18 01:16:50;;;;;;;;;;;;;;;-144.99;87.77;52556.13;5071023;28;20228;-67
2023/02/18 01:19:16;;;;;;;;;;;;;;;-144.99;88.01;52570.38;5073975;28;19946;-67
2023/02/18 01:21:43;;;;;;;;;;;;;;;-144.99;88.11;52558.16;5079912;28;19954;-64
2023/02/18 01:24:11;;;;;;;;;;;;;;;-144.99;87.57;52574.47;5070535;28;19988;-69
2023/02/18 01:26:37;;;;;;;;;;;;;;;-144.99;87.88;52578.53;5070389;28;20434;-65
2023/02/18 01:29:04;;;;;;;;;;;;;;;-144.99;87.94;52541.84;5068693;28;19972;-66
2023/02/18 01:31:30;;;;;;;;;;;;;;;-144.99;88.24;52550.00;5068719;28;19959;-66
2023/02/18 01:33:57;;;;;;;;;;;;;;;-144.99;88.21;52582.63;5070448;28;19946;-67
2023/02/18 01:36:23;;;;;;;;;;;;;;;-144.99;89.23;52576.50;5070411;28;19938;-67
2023/02/18 01:38:50;;;;;;;;;;;;;;;-144.99;90.00;52556.13;5068558;28;19937;-67
2023/02/18 01:41:18;;;;;;;;;;;;;;;-144.99;89.52;52550.00;5070151;28;20277;-66
2023/02/18 01:43:44;;;;;;;;;;;;;;;-144.99;90.42;52584.66;5070061;28;19940;-65
2023/02/18 01:46:13;;;;;;;;;;;;;;;-144.99;89.93;52578.53;5070454;28;19982;-66
2023/02/18 01:48:42;;;;;;;;;;;;;;;-144.99;89.39;52570.38;5070363;28;19981;-66
2023/02/18 01:51:11;;;;;;;;;;;;;;;-144.99;89.48;52588.75;5067175;28;20421;-66
2023/02/18 01:53:40;;;;;;;;;;;;;;;-144.99;90.37;52566.31;5069916;28;20372;-65
2023/02/18 01:56:10;;;;;;;;;;;;;;;-144.99;90.75;52558.16;5070033;28;19982;-67
2023/02/18 01:58:38;;;;;;;;;;;;;;;-144.99;90.71;52541.84;5070097;28;19984;-67
2023/02/18 02:01:05;;;;;;;;;;;;;;;-144.99;91.41;52550.00;5073908;28;19999;-66
2023/02/18 02:03:32;;;;;;;;;;;;;;;-144.99;91.56;52566.31;5076095;28;19965;-65
2023/02/18 02:05:58;;;;;;;;;;;;;;;-144.99;91.85;52558.16;5069589;28;20009;-65
2023/02/18 02:08:25;;;;;;;;;;;;;;;-144.99;92.13;52586.69;5069626;28;19948;-67
2023/02/18 02:10:59;;;;;;;;;;;;;;;-144.99;93.40;52554.09;5067393;28;19982;-67
2023/02/18 02:13:29;;;;;;;;;;;;;;;-144.99;93.41;52562.25;5069351;28;19985;-67
2023/02/18 02:16:03;;;;;;;;;;;;;;;-144.99;93.76;52598.94;5069673;28;19994;-67
2023/02/18 02:18:39;;;;;;;;;;;;;;;-144.99;93.94;52570.38;5067571;28;20019;-67
2023/02/18 02:21:17;;;;;;;;;;;;;;;-144.99;93.84;52590.78;5062484;28;19967;-65
2023/02/18 02:24:01;;;;;;;;;;;;;;;-144.99;95.23;52580.59;5067975;28;19938;-66
2023/02/18 02:26:44;;;;;;;;;;;;;;;-144.99;94.19;52558.16;5066061;28;20035;-66
2023/02/18 02:29:31;;;;;;;;;;;;;;;-144.99;95.47;52560.19;5067838;28;19949;-66
2023/02/18 02:32:20;;;;;;;;;;;;;;;-144.99;95.49;52588.75;5058677;28;20292;-66
2023/02/18 02:34:52;;;;;;;;;;;;;;;-144.99;93.95;52556.13;5067741;28;19983;-67
2023/02/18 02:37:24;;;;;;;;;;;;;;;-144.99;93.71;52586.69;5069363;28;19980;-66
2023/02/18 02:39:57;;;;;;;;;;;;;;;-144.99;94.71;52588.75;5064242;28;19966;-67
2023/02/18 02:42:29;;;;;;;;;;;;;;;-144.99;95.11;52590.78;5076802;28;20377;-67
2023/02/18 02:45:01;;;;;;;;;;;;;;;-144.99;94.71;52586.69;5071119;28;19949;-67
2023/02/18 02:47:32;;;;;;;;;;;;;;;-144.99;94.00;52558.16;5065848;28;20499;-68
2023/02/18 02:50:03;;;;;;;;;;;;;;;-144.99;94.11;52611.16;5068600;28;20458;-67
2023/02/18 02:52:31;;;;;;;;;;;;;;;-144.99;93.69;52574.47;5066732;28;19992;-66
2023/02/18 02:54:58;;;;;;;;;;;;;;;-144.99;94.36;52590.78;5066050;28;20413;-66
2023/02/18 02:57:44;;;;;;;;;;;;;;;-144.99;93.66;52541.84;5068058;28;20322;-67
2023/02/18 03:00:12;;;;;;;;;;;;;;;-144.99;93.67;52582.63;5068638;28;19954;-67
2023/02/18 03:02:45;;;;;;;;;;;;;;;-144.99;94.50;52558.16;5068918;28;20365;-66
2023/02/18 03:05:21;;;;;;;;;;;;;;;-144.99;94.66;52603.00;5067007;28;19937;-68
2023/02/18 03:08:00;;;;;;;;;;;;;;;-144.99;94.74;52574.47;5068978;28;19986;-67
2023/02/18 03:10:36;;;;;;;;;;;;;;;-144.99;94.56;52590.78;5067322;28;20009;-67
2023/02/18 03:13:07;;;;;;;;;;;;;;;-144.99;94.45;52574.47;5069273;28;20352;-66
2023/02/18 03:15:38;;;;;;;;;;;;;;;-144.99;94.41;52582.63;5060413;28;20034;-67
2023/02/18 03:18:07;;;;;;;;;;;;;;;-144.99;93.34;52533.69;5065279;28;20166;-67
2023/02/18 03:20:37;;;;;;;;;;;;;;;-144.99;93.64;52519.44;5069375;28;20780;-65
2023/02/18 03:23:05;;;;;;;;;;;;;;;-144.99;94.92;52541.84;5080547;28;20002;-64
2023/02/18 03:25:33;;;;;;;;;;;;;;;-144.99;96.51;52550.00;5072439;28;20020;-66
2023/02/18 03:28:02;;;;;;;;;;;;;;;-144.99;96.64;52550.00;5067103;28;20001;-63
2023/02/18 03:30:32;;;;;;;;;;;;;;;-144.99;97.35;52556.13;5067173;28;20338;-64
2023/02/18 03:33:00;;;;;;;;;;;;;;;-144.99;97.86;52578.53;5068731;28;20203;-64
2023/02/18 03:35:27;;;;;;;;;;;;;;;-144.99;95.08;52558.16;5063708;28;20002;-63
2023/02/18 03:37:59;;;;;;;;;;;;;;;-144.99;92.16;52558.16;5067802;28;19942;-64
2023/02/18 03:40:26;;;;;;;;;;;;;;;-144.99;93.06;52501.09;5067459;28;20823;-66
2023/02/18 03:42:53;;;;;;;;;;;;;;;-144.99;89.95;52537.78;5050487;28;19990;-65
2023/02/18 03:45:19;;;;;;;;;;;;;;;-144.99;88.37;52537.78;5068054;28;20420;-63
2023/02/18 03:47:46;;;;;;;;;;;;;;;-144.99;89.65;52533.69;5068156;28;19998;-63
2023/02/18 03:50:12;;;;;;;;;;;;;;;-144.99;89.02;52562.25;5060651;28;20092;-64
2023/02/18 03:52:39;;;;;;;;;;;;;;;-144.99;89.28;52556.13;5065840;28;20395;-63
2023/02/18 03:55:08;;;;;;;;;;;;;;;-144.99;90.08;52607.09;5068227;28;19946;-62
2023/02/18 03:57:34;;;;;;;;;;;;;;;-144.99;89.85;52521.47;5068435;28;19944;-63
2023/02/18 04:00:01;;;;;;;;;;;;;;;-144.99;90.56;52570.38;5066600;28;19963;-62
2023/02/18 04:02:28;;;;;;;;;;;;;;;-144.99;89.79;52554.09;5068370;28;19942;-61
2023/02/18 04:04:54;;;;;;;;;;;;;;;-144.99;90.53;52556.13;5072222;28;19948;-61
2023/02/18 04:07:21;;;;;;;;;;;;;;;-144.99;91.48;52574.47;5072971;28;20016;-62
2023/02/18 04:09:48;;;;;;;;;;;;;;;-144.99;94.01;52580.59;5070096;28;19959;-66
2023/02/18 04:12:15;;;;;;;;;;;;;;;-144.99;95.58;52566.31;5071777;28;19951;-67
2023/02/18 04:14:42;;;;;;;;;;;;;;;-144.99;96.83;52586.69;5071901;28;20215;-65
2023/02/18 04:17:09;;;;;;;;;;;;;;;-144.99;97.72;52537.78;5071835;28;20400;-65
2023/02/18 04:19:35;;;;;;;;;;;;;;;-144.99;98.00;52541.84;5070394;28;20465;-67
2023/02/18 04:22:02;;;;;;;;;;;;;;;-144.99;97.77;52537.78;5071886;28;19948;-65
2023/02/18 04:24:29;;;;;;;;;;;;;;;-144.99;97.33;52541.84;5071312;28;19993;-67
2023/02/18 04:26:55;;;;;;;;;;;;;;;-144.99;98.61;52560.19;5071468;28;20010;-65
2023/02/18 04:29:23;;;;;;;;;;;;;;;-144.99;98.02;52564.28;5071232;28;19978;-65
2023/02/18 04:31:50;;;;;;;;;;;;;;;-144.99;97.71;52537.78;5068355;28;19963;-65
2023/02/18 04:34:16;;;;;;;;;;;;;;;-144.99;95.62;52578.53;5070904;28;19975;-66
2023/02/18 04:36:43;;;;;;;;;;;;;;;-144.99;95.44;52545.94;5071979;28;19940;-64
2023/02/18 04:39:09;;;;;;;;;;;;;;;-144.99;92.73;52525.56;5071626;28;20352;-64
2023/02/18 04:41:36;;;;;;;;;;;;;;;-144.99;91.73;52550.00;5069869;28;20039;-64
2023/02/18 04:44:02;;;;;;;;;;;;;;;-144.99;96.10;52537.78;5073729;28;19991;-65
2023/02/18 04:46:30;;;;;;;;;;;;;;;-144.99;92.00;52539.81;5076270;28;19948;-63
2023/02/18 04:48:57;;;;;;;;;;;;;;;-144.99;91.47;52550.00;5071284;28;20467;-65
2023/02/18 04:51:23;;;;;;;;;;;;;;;-144.99;92.54;52523.50;5069553;28;19952;-64
2023/02/18 04:53:50;;;;;;;;;;;;;;;-144.99;94.09;52554.09;5070938;28;19969;-66
2023/02/18 04:56:16;;;;;;;;;;;;;;;-144.99;96.00;52554.09;5071434;28;20032;-65
2023/02/18 04:58:43;;;;;;;;;;;;;;;-144.99;98.22;52556.13;5071290;28;20014;-65
2023/02/18 05:01:10;;;;;;;;;;;;;;;-144.99;99.73;52537.78;5069358;28;19996;-64
2023/02/18 05:03:38;;;;;;;;;;;;;;;-144.99;100.00;52541.84;5066727;28;19971;-65
2023/02/18 05:06:05;;;;;;;;;;;;;;;-144.99;100.00;52503.13;5069934;28;19941;-66
2023/02/18 05:08:31;;;;;;;;;;;;;;;-144.99;99.27;52523.50;5070371;28;20409;-65
2023/02/18 05:10:58;;;;;;;;;;;;;;;-144.99;100.00;52562.25;5071000;28;20046;-64
2023/02/18 05:13:24;;;;;;;;;;;;;;;-144.99;100.00;52545.94;5070598;28;19994;-67
2023/02/18 05:15:51;;;;;;;;;;;;;;;-144.99;100.00;52558.16;5069166;28;19970;-67
2023/02/18 05:18:17;;;;;;;;;;;;;;;-144.99;100.00;52558.16;5069792;28;19977;-68
2023/02/18 05:20:45;;;;;;;;;;;;;;;-144.99;100.00;52525.56;5070486;28;20036;-67
2023/02/18 05:23:12;;;;;;;;;;;;;;;-144.99;100.00;52558.16;5070688;28;20476;-67
2023/02/18 05:28:07;;;;;;;;;;;;;;;-144.99;100.00;52533.69;5064103;28;19985;-69
2023/02/18 05:30:33;;;;;;;;;;;;;;;-144.99;100.00;52558.16;5071619;28;19952;-69
2023/02/18 05:33:00;;;;;;;;;;;;;;;-144.99;100.00;52550.00;5079185;28;19956;-68
2023/02/18 05:35:27;;;;;;;;;;;;;;;-144.99;100.00;52566.31;5076157;28;19936;-69
2023/02/18 05:37:54;;;;;;;;;;;;;;;-144.99;100.00;52545.94;5071149;28;19945;-66
2023/02/18 05:40:21;;;;;;;;;;;;;;;-144.99;100.00;52570.38;5065298;28;20012;-78
2023/02/18 05:42:48;;;;;;;;;;;;;;;-144.99;100.00;52574.47;5067169;28;19945;-77
2023/02/18 05:45:14;;;;;;;;;;;;;;;-144.99;100.00;52566.31;5065568;28;19950;-77
2023/02/18 05:47:41;;;;;;;;;;;;;;;-144.99;100.00;52558.16;5065652;28;19960;-75
2023/02/18 05:50:08;;;;;;;;;;;;;;;-144.99;100.00;52550.00;5064064;28;20324;-75
2023/02/18 05:52:34;;;;;;;;;;;;;;;-144.99;100.00;52541.84;5066663;28;19950;-75
2023/02/18 05:55:02;;;;;;;;;;;;;;;-144.99;100.00;52570.38;5067544;28;20017;-76
2023/02/18 05:57:29;;;;;;;;;;;;;;;-144.99;100.00;52578.53;5061126;28;19996;-76
2023/02/18 05:59:55;;;;;;;;;;;;;;;-144.99;100.00;52537.78;5066010;28;19955;-75
2023/02/18 06:02:22;;;;;;;;;;;;;;;-144.99;100.00;52578.53;5067688;28;19939;-75
2023/02/18 06:04:49;;;;;;;;;;;;;;;-144.99;100.00;52562.25;5058092;28;19938;-74
2023/02/18 06:07:15;;;;;;;;;;;;;;;-144.99;100.00;52568.34;5065147;28;19952;-69
2023/02/18 06:09:42;;;;;;;;;;;;;;;-144.99;100.00;52554.09;5068464;28;19955;-67
2023/02/18 06:12:10;;;;;;;;;;;;;;;-144.99;100.00;52554.09;5069639;28;19952;-66
2023/02/18 06:14:36;;;;;;;;;;;;;;;-144.99;100.00;52560.19;5069229;28;20358;-66
2023/02/18 06:17:03;;;;;;;;;;;;;;;-144.99;100.00;52533.69;5068699;28;19948;-65
2023/02/18 06:19:30;;;;;;;;;;;;;;;-144.99;100.00;52558.16;5062335;28;20281;-77
2023/02/18 06:21:56;;;;;;;;;;;;;;;-144.99;100.00;52525.56;5081093;28;19949;-75
2023/02/18 06:24:23;;;;;;;;;;;;;;;-144.99;100.00;52592.81;5086943;28;19936;-76
2023/02/18 06:26:49;;;;;;;;;;;;;;;-144.99;100.00;52558.16;5058171;28;20040;-75
2023/02/18 06:29:17;;;;;;;;;;;;;;;-144.99;100.00;52558.16;5064129;28;21651;-75
2023/02/18 06:31:44;;;;;;;;;;;;;;;-144.99;100.00;52545.94;5066288;28;20442;-70
2023/02/18 06:34:11;;;;;;;;;;;;;;;-144.99;100.00;52525.56;5067934;28;20398;-65
2023/02/18 06:36:37;;;;;;;;;;;;;;;-144.99;100.00;52562.25;5068927;28;19954;-70
2023/02/18 06:39:04;;;;;;;;;;;;;;;-144.99;100.00;52537.78;5065283;28;19947;-70
2023/02/18 06:41:31;;;;;;;;;;;;;;;-144.99;100.00;52558.16;5068406;28;20001;-69
2023/02/18 06:43:57;;;;;;;;;;;;;;;-144.99;100.00;52523.50;5068358;28;20070;-68
2023/02/18 06:46:25;;;;;;;;;;;;;;;-144.99;100.00;52554.09;5068040;28;19935;-69
2023/02/18 06:48:52;;;;;;;;;;;;;;;-144.99;100.00;52541.84;5066575;28;19962;-68
2023/02/18 06:51:19;;;;;;;;;;;;;;;-144.99;100.00;52541.84;5064075;28;20039;-69
2023/02/18 06:53:45;;;;;;;;;;;;;;;-144.99;100.00;52558.16;5063520;28;19942;-68
2023/02/18 06:56:12;;;;;;;;;;;;;;;-144.99;100.00;52558.16;5068477;28;19947;-67
2023/02/18 06:58:39;;;;;;;;;;;;;;;-144.99;100.00;52545.94;5065308;28;20006;-68
2023/02/18 07:01:05;;;;;;;;;;;;;;;-144.99;100.00;52515.34;5073238;28;19962;-68
2023/02/18 07:03:33;;;;;;;;;;;;;;;-144.99;99.27;52533.69;5071969;28;19941;-65
2023/02/18 07:06:00;;;;;;;;;;;;;;;-144.99;100.00;52521.47;5071433;28;19942;-65
2023/02/18 07:08:29;;;;;;;;;;;;;;;-144.99;100.00;52513.31;5067922;28;20003;-65
2023/02/18 07:10:55;;;;;;;;;;;;;;;-144.99;100.00;52558.16;5071061;28;19962;-70
2023/02/18 07:13:22;;;;;;;;;;;;;;;-144.99;100.00;52513.31;5069870;28;19939;-70
2023/02/18 07:15:48;;;;;;;;;;;;;;;-144.99;100.00;52541.84;5072176;28;19945;-70
2023/02/18 07:18:15;;;;;;;;;;;;;;;-144.99;100.00;52566.31;5068717;28;19991;-69
2023/02/18 07:20:43;;;;;;;;;;;;;;;-144.99;100.00;52554.09;5062307;28;20426;-70
2023/02/18 07:23:10;;;;;;;;;;;;;;;-144.99;100.00;52533.69;5066250;28;19945;-68
2023/02/18 07:25:36;;;;;;;;;;;;;;;-144.99;100.00;52578.53;5067704;28;20017;-68
2023/02/18 07:28:03;;;;;;;;;;;;;;;-144.99;100.00;52570.38;5065415;28;19958;-69
2023/02/18 07:30:30;;;;;;;;;;;;;;;-144.99;100.00;52525.56;5065342;28;19960;-69
2023/02/18 07:32:56;;;;;;;;;;;;;;;-144.99;100.00;52537.78;5068069;28;19973;-69
2023/02/18 07:35:23;;;;;;;;;;;;;;;-144.99;100.00;52529.63;5067790;28;19942;-70
2023/02/18 07:37:51;;;;;;;;;;;;;;;-144.99;100.00;52511.28;5063079;28;19935;-69
2023/02/18 07:40:18;;;;;;;;;;;;;;;-144.99;100.00;52517.41;5066602;28;20122;-69
2023/02/18 07:42:45;;;;;;;;;;;;;;;-144.99;100.00;52550.00;5064543;28;20028;-69
2023/02/18 07:45:12;;;;;;;;;;;;;;;-144.99;100.00;52584.66;5071860;28;20002;-70
2023/02/18 07:47:38;;;;;;;;;;;;;;;-144.99;100.00;52525.56;5067451;28;19960;-70
2023/02/18 07:50:06;;;;;;;;;;;;;;;-144.99;100.00;52570.38;5064800;28;19960;-69
2023/02/18 07:52:32;;;;;;;;;;;;;;;-144.99;100.00;52570.38;5071844;28;19945;-71
2023/02/18 07:55:00;;;;;;;;;;;;;;;-144.99;100.00;52519.44;5070319;28;20363;-69
2023/02/18 07:57:27;;;;;;;;;;;;;;;-144.99;100.00;52523.50;5067308;28;19946;-71
2023/02/18 07:59:54;;;;;;;;;;;;;;;-144.99;100.00;52552.03;5069808;28;19966;-69
2023/02/18 08:02:22;;;;;;;;;;;;;;;-144.99;100.00;52570.38;5063867;28;19943;-71
2023/02/18 08:04:48;;;;;;;;;;;;;;;-144.99;100.00;52509.25;5071672;28;20458;-70
2023/02/18 08:07:15;;;;;;;;;;;;;;;-144.99;100.00;52513.31;5070048;28;19935;-70
2023/02/18 08:09:42;;;;;;;;;;;;;;;-144.99;100.00;52550.00;5068073;28;19944;-71
2023/02/18 08:12:10;;;;;;;;;;;;;;;-144.99;100.00;52550.00;5071058;28;19948;-70
2023/02/18 08:14:37;;;;;;;;;;;;;;;-144.99;100.00;52539.81;5071191;28;19941;-71
2023/02/18 08:17:03;;;;;;;;;;;;;;;-144.99;100.00;52550.00;5070664;28;20432;-70
2023/02/18 08:19:30;;;;;;;;;;;;;;;-144.99;100.00;52541.84;5068781;28;19940;-70
2023/02/18 08:21:56;;;;;;;;;;;;;;;-144.99;100.00;52558.16;5067388;28;19959;-70
2023/02/18 08:24:23;;;;;;;;;;;;;;;-144.99;100.00;52513.31;5070780;28;19940;-70
2023/02/18 08:26:49;;;;;;;;;;;;;;;-144.99;100.00;52509.25;5064437;28;19948;-70
2023/02/18 08:29:17;;;;;;;;;;;;;;;-144.99;100.00;52527.59;5066185;28;19961;-70
2023/02/18 08:31:44;;;;;;;;;;;;;;;-144.99;100.00;52515.34;5071336;28;19956;-70
2023/02/18 08:34:10;;;;;;;;;;;;;;;-144.99;100.00;52554.09;5071265;28;19947;-70
2023/02/18 08:36:37;;;;;;;;;;;;;;;-144.99;100.00;52558.16;5071356;28;19949;-71
2023/02/18 08:39:03;;;;;;;;;;;;;;;-144.99;100.00;52545.94;5064525;28;20014;-70
2023/02/18 08:41:30;;;;;;;;;;;;;;;-144.99;100.00;52521.47;5070303;28;19954;-71
2023/02/18 08:43:57;;;;;;;;;;;;;;;-144.99;100.00;52517.41;5071036;28;19949;-71
2023/02/18 08:46:24;;;;;;;;;;;;;;;-144.99;100.00;52541.84;5071275;28;20140;-70
2023/02/18 08:48:51;;;;;;;;;;;;;;;-144.99;100.00;52525.56;5065152;28;19959;-70
2023/02/18 08:51:19;;;;;;;;;;;;;;;-144.99;100.00;52505.16;5067416;28;19959;-72
2023/02/18 08:53:46;;;;;;;;;;;;;;;-144.99;100.00;52525.56;5065296;28;19942;-71
2023/02/18 08:56:13;;;;;;;;;;;;;;;-144.99;100.00;52545.94;5059729;28;19944;-71
2023/02/18 08:58:40;;;;;;;;;;;;;;;-144.99;100.00;52539.81;5067535;28;19975;-71
2023/02/18 09:01:08;;;;;;;;;;;;;;;-144.99;100.00;52490.91;5053561;28;20012;-71
2023/02/18 09:03:36;;;;;;;;;;;;;;;-144.99;100.00;52547.97;5063800;28;20015;-72
2023/02/18 09:06:02;;;;;;;;;;;;;;;-144.99;100.00;52521.47;5067955;28;20021;-72
2023/02/18 09:08:29;;;;;;;;;;;;;;;-144.99;100.00;52558.16;5063607;28;20004;-70
2023/02/18 09:10:56;;;;;;;;;;;;;;;-144.99;100.00;52533.69;5063416;28;20505;-69
2023/02/18 09:13:23;;;;;;;;;;;;;;;-144.99;100.00;52545.94;5065421;28;19938;-70
2023/02/18 09:15:56;;;;;;;;;;;;;;;-144.99;100.00;52545.94;5071106;28;20006;-69
2023/02/18 09:18:22;;;;;;;;;;;;;;;-144.99;100.00;52521.47;5068888;28;20408;-70
2023/02/18 09:20:50;;;;;;;;;;;;;;;-144.99;100.00;52541.84;5071052;28;20305;-70
2023/02/18 09:23:17;;;;;;;;;;;;;;;-144.99;100.00;52554.09;5069941;28;19936;-70
2023/02/18 09:25:44;;;;;;;;;;;;;;;-144.99;100.00;52529.63;5070012;28;19995;-70
2023/02/18 09:28:10;;;;;;;;;;;;;;;-144.99;100.00;52541.84;5069483;28;19955;-71
2023/02/18 09:30:39;;;;;;;;;;;;;;;-144.99;100.00;52505.16;5063196;28;20014;-70
2023/02/18 09:33:05;;;;;;;;;;;;;;;-144.99;100.00;52529.63;5070043;28;19943;-70
2023/02/18 09:35:32;;;;;;;;;;;;;;;-144.99;100.00;52527.59;5069173;28;19981;-70
2023/02/18 09:38:00;;;;;;;;;;;;;;;-144.99;100.00;52529.63;5064259;28;19961;-71
2023/02/18 09:40:28;;;;;;;;;;;;;;;-144.99;100.00;52521.47;5064816;28;19979;-71
2023/02/18 09:42:56;;;;;;;;;;;;;;;-144.99;100.00;52547.97;5070059;28;20357;-71
2023/02/18 09:45:23;;;;;;;;;;;;;;;-144.99;100.00;52574.47;5077268;28;19937;-71
2023/02/18 09:47:50;;;;;;;;;;;;;;;-144.99;100.00;52550.00;5069760;28;19944;-70
2023/02/18 09:50:20;;;;;;;;;;;;;;;-144.99;100.00;52570.38;5064920;28;20379;-71
2023/02/18 09:52:47;;;;;;;;;;;;;;;-144.99;100.00;52509.25;5064579;28;19990;-72
2023/02/18 09:55:22;;;;;;;;;;;;;;;-144.99;100.00;52552.03;5065539;28;19949;-71
2023/02/18 09:57:50;;;;;;;;;;;;;;;-144.99;100.00;52533.69;5064477;28;19942;-73
2023/02/18 10:00:18;;;;;;;;;;;;;;;-144.99;100.00;52525.56;5067619;28;19952;-70
2023/02/18 10:02:50;;;;;;;;;;;;;;;-144.99;100.00;52529.63;5064922;28;19940;-71
2023/02/18 10:05:17;;;;;;;;;;;;;;;-144.99;100.00;52547.97;5069887;28;20047;-71
2023/02/18 10:07:45;;;;;;;;;;;;;;;-144.99;100.00;52529.63;5068469;28;19942;-69
2023/02/18 10:10:16;;;;;;;;;;;;;;;-144.99;100.00;52525.56;5067800;28;19981;-74
2023/02/18 10:12:45;;;;;;;;;;;;;;;-144.99;100.00;52539.81;5070085;28;19944;-75
2023/02/18 10:15:17;;;;;;;;;;;;;;;-144.99;100.00;52541.84;5068789;28;20368;-75
2023/02/18 10:17:44;;;;;;;;;;;;;;;-144.99;100.00;52521.47;5064601;28;19944;-76
2023/02/18 10:20:15;;;;;;;;;;;;;;;-144.99;100.00;52519.44;5068358;28;19962;-75
2023/02/18 10:22:41;;;;;;;;;;;;;;;-144.99;100.00;52537.78;5063371;28;19946;-75
2023/02/18 10:25:08;;;;;;;;;;;;;;;-144.99;100.00;52484.78;5066906;28;19944;-75
2023/02/18 10:27:37;;;;;;;;;;;;;;;-144.99;100.00;52521.47;5067625;28;19956;-76
2023/02/18 10:30:18;;;;;;;;;;;;;;;-144.99;100.00;52554.09;5065446;28;19972;-75
2023/02/18 10:32:45;;;;;;;;;;;;;;;-144.99;100.00;52521.47;5066331;28;19946;-74
2023/02/18 10:35:16;;;;;;;;;;;;;;;-144.99;100.00;52537.78;5055446;28;19951;-76
2023/02/18 10:37:49;;;;;;;;;;;;;;;-144.99;100.00;52521.47;5076827;28;19953;-75
2023/02/18 10:40:23;;;;;;;;;;;;;;;-144.99;100.00;52517.41;5067713;28;20012;-76
2023/02/18 10:42:59;;;;;;;;;;;;;;;-144.99;100.00;52537.78;5066154;28;19994;-74
2023/02/18 10:45:32;;;;;;;;;;;;;;;-144.99;100.00;52480.72;5064213;28;19945;-75
2023/02/18 10:48:05;;;;;;;;;;;;;;;-144.99;100.00;52521.47;5067450;28;19952;-75
2023/02/18 10:50:35;;;;;;;;;;;;;;;-144.99;100.00;52550.00;5067015;28;19962;-75
2023/02/18 10:53:02;;;;;;;;;;;;;;;-144.99;100.00;52505.16;5062091;28;19947;-75
2023/02/18 10:55:36;;;;;;;;;;;;;;;-144.99;100.00;52511.28;5059881;28;19986;-75
2023/02/18 10:58:03;;;;;;;;;;;;;;;-144.99;100.00;52503.13;5062296;28;19953;-75
2023/02/18 11:00:35;;;;;;;;;;;;;;;-144.99;100.00;52501.09;5066160;28;20043;-76
2023/02/18 11:03:04;;;;;;;;;;;;;;;-144.99;100.00;52515.34;5064604;28;20329;-76
2023/02/18 11:05:30;;;;;;;;;;;;;;;-144.99;100.00;52529.63;5067424;28;19937;-76
2023/02/18 11:07:58;;;;;;;;;;;;;;;-144.99;100.00;52537.78;5069815;28;19944;-74
2023/02/18 11:10:26;;;;;;;;;;;;;;;-144.99;100.00;52511.28;5058918;28;20405;-75
2023/02/18 11:12:55;;;;;;;;;;;;;;;-144.99;100.00;52480.72;5066529;28;19976;-75
2023/02/18 11:15:23;;;;;;;;;;;;;;;-144.99;100.00;52488.84;5066700;28;19942;-75
2023/02/18 11:17:52;;;;;;;;;;;;;;;-144.99;100.00;52509.25;5065953;28;19947;-74
2023/02/18 11:20:28;;;;;;;;;;;;;;;-144.99;100.00;52521.47;5060599;28;19971;-75
2023/02/18 11:22:57;;;;;;;;;;;;;;;-144.99;100.00;52497.00;5064638;28;20040;-77
2023/02/18 11:25:27;;;;;;;;;;;;;;;-144.99;100.00;52539.81;5058842;28;20480;-74
2023/02/18 11:27:55;;;;;;;;;;;;;;;-144.99;100.00;52505.16;5062958;22;20431;-68
2023/02/18 11:30:23;;;;;;;;;;;;;;;-144.99;100.00;52503.13;5044840;28;20092;-69
2023/02/18 11:32:54;;;;;;;;;;;;;;;-144.99;100.00;52505.16;5047064;28;19965;-67
2023/02/18 11:35:23;;;;;;;;;;;;;;;-144.99;100.00;52525.56;5048497;28;19951;-67
2023/02/18 11:37:50;;;;;;;;;;;;;;;-144.99;100.00;52511.28;5031119;28;20350;-69
2023/02/18 11:40:21;;;;;;;;;;;;;;;-144.99;100.00;52541.84;5048829;28;19994;-67
2023/02/18 11:42:48;;;;;;;;;;;;;;;-144.99;100.00;52539.81;5045033;28;19991;-68
2023/02/18 11:45:26;;;;;;;;;;;;;;;-144.99;100.00;52501.09;5046866;28;19947;-67
2023/02/18 11:48:00;;;;;;;;;;;;;;;-144.99;100.00;52492.94;5046593;28;19942;-67
2023/02/18 11:50:30;;;;;;;;;;;;;;;-144.99;100.00;52484.78;5044893;28;20410;-68
2023/02/18 11:52:58;;;;;;;;;;;;;;;-144.99;100.00;52525.56;5044531;28;19941;-69
2023/02/18 11:55:26;;;;;;;;;;;;;;;-144.99;100.00;52480.72;5040038;28;19949;-68
2023/02/18 11:57:55;;;;;;;;;;;;;;;-144.99;100.00;52501.09;5051117;28;19939;-69
2023/02/18 12:00:23;;;;;;;;;;;;;;;-144.99;100.00;52497.00;5044152;28;20053;-69
2023/02/18 12:02:51;;;;;;;;;;;;;;;-144.99;100.00;52505.16;5046257;28;19983;-68
2023/02/18 12:05:21;;;;;;;;;;;;;;;-144.99;100.00;52492.94;5047782;28;19941;-68
2023/02/18 12:07:49;;;;;;;;;;;;;;;-144.99;100.00;52497.00;5031963;28;19947;-68
2023/02/18 12:10:21;;;;;;;;;;;;;;;-144.99;100.00;52486.81;5047835;28;20008;-68
2023/02/18 12:12:50;;;;;;;;;;;;;;;-144.99;100.00;52497.00;5042964;28;20257;-68
2023/02/18 12:15:19;;;;;;;;;;;;;;;-144.99;100.00;52472.56;5045444;28;19994;-68
2023/02/18 12:18:04;;;;;;;;;;;;;;;-144.99;100.00;52488.84;5048169;28;20216;-68
2023/02/18 12:20:47;;;;;;;;;;;;;;;-144.99;100.00;52492.94;5039486;28;19956;-68
2023/02/18 12:23:18;;;;;;;;;;;;;;;-144.99;100.00;52499.06;5046086;28;19949;-69
2023/02/18 12:25:51;;;;;;;;;;;;;;;-144.99;100.00;52464.41;5041193;28;20039;-69
2023/02/18 12:28:24;;;;;;;;;;;;;;;-144.99;100.00;52484.78;5047897;28;20008;-69